Pagina principală
METAR-TAF:

METAR-TAF

Aeroporturi :

Ponca City, Oklahoma, Statele Unite ale Americii

Latitudine: 36-43-50N, longitudine: 097-05-59W, elevație: 307 m

METAR: lipsă

Ora: 17:30 (22:30 UTC)

Prognoză

Raportul a fost făcut în urmă cu 5 ore și 10 de minute, la 17:20 UTC
Prognoză valabilă de la 22 ora 18 UTC la 23 ora 18 UTC
Vânt 12 kt de la Sud/Sud-vest cu rafale de până la 20 kt
Vizibilitate: 10 km
Nori împrăștiați la o înălțime de 6000 picior
Nori împrăștiați la o înălțime de 25000 picior
De la 23 ora 0100 UTC
Vânt 8 kt de la Sud
Vizibilitate: 10 km
Nori puțini la o înălțime de 10000 picior
Nori fragmentați la o înălțime de 25000 picior
De la 23 ora 0800 UTC
Vânt 6 kt din direcții variabile
Vizibilitate: 10 km
Nori împrăștiați la o înălțime de 10000 picior
Nori împrăștiați la o înălțime de 25000 picior

TAF: KPNC 221720Z 2218/2318 21012G20KT P6SM SCT060 SCT250 FM230100 18008KT P6SM FEW100 BKN250 FM230800 VRB06KT P6SM SCT100 SCT250 AMD NOT SKED

Observații și prognoze meteo pentru peste 4.000 de aeroporturi (rapoarte METAR și TAF).

Stațiile disponibile sunt reprezentate pe hartă prin puncte galbene și roșii.

Țineți indicatorul mouse-ului pe punctul dorit pentru a vedea denumirea stației.

Apoi, faceți clic pentru a vedea observațiile și prognozele meteorologice.

Pentru a schimba harta: Pentru mărire, faceți clic pe butoanele verzi cu cruce neagră; pentru micșorare, pe butonul verde cu o liniuță; pentru hărți învecinate, pe săgețile verzi.


METAR-TAF: